Portada
METAR-TAF:

METAR-TAF

Aeroports :

Guiyang, Xina

latitud: 26-32-19N, longitud: 106-48-03E, altitud: 1139 m

Observació

L'informe es va fer fa 38 minuts, a les 15:00 UTC
Vent 2 kt amb direcció variable
Temperatura 9°C
Humitat 71%
Pressió 1016 hPa
Visibilitat 10 km o més
Cel ennuvolat a una alçada de 4600 ft

METAR: ZUGY 151500Z VRB01MPS 9999 BKN046 09/04 Q1016 NOSIG

Hora: 23:38 (15:38 UTC)

Pronòstic

L'informe es va fer fa 6 hores i 31 minuts, a les 09:07 UTC
Pronòstic vàlid del 15 a les 12 UTC al 16 a les 12 UTC
Vent 6 kt del Nord/Nord-Est
Visibilitat: 6000 m
Núvols disperses a una alçada de 3000 ft

TAF: ZUGY 150907Z 1512/1612 03003MPS 6000 SCT030 TX12/1512Z TN04/1612Z

Observacions i pronòstics meteorològics de més de 4000 aeroports (METAR i TAF).

Les estacions disponibles són els punts grocs i vermells al mapa.

Posi el ratolí al punt desitjat per veure el nom de l'estació.

Feu clic per veure les observacions i els pronòstics meteorològics.

Per canviar el mapa: feu clic els botons verds amb una creu de color negre per apropar; al botó verd amb un guió per allunyar la imatge; o en les fletxes verdes per a mapes adjacents.


METAR-TAF: